createdAt,value
2019-05-20T00:01:14.232Z,16.80
2019-05-20T00:03:43.772Z,16.80
2019-05-20T00:06:13.440Z,16.70
2019-05-20T00:08:43.050Z,16.70
2019-05-20T00:11:12.806Z,16.70
2019-05-20T00:13:42.359Z,16.60
2019-05-20T00:16:12.032Z,16.70
2019-05-20T00:18:41.621Z,16.60
2019-05-20T00:21:11.403Z,16.50
2019-05-20T00:23:40.997Z,16.60
2019-05-20T00:26:10.572Z,16.60
2019-05-20T00:28:40.232Z,16.60
2019-05-20T00:31:10.438Z,16.60
2019-05-20T00:33:40.037Z,16.60
2019-05-20T00:36:10.026Z,16.60
2019-05-20T00:38:39.753Z,16.50
2019-05-20T00:41:09.470Z,16.50
2019-05-20T00:43:39.104Z,16.50
2019-05-20T00:46:08.799Z,16.40
2019-05-20T00:48:38.400Z,16.40
2019-05-20T00:51:07.962Z,16.40
2019-05-20T00:53:37.600Z,16.40
2019-05-20T00:56:07.170Z,16.40
2019-05-20T00:58:36.806Z,16.40
2019-05-20T01:01:06.494Z,16.40
2019-05-20T01:03:36.052Z,16.40
2019-05-20T01:06:05.654Z,16.20
2019-05-20T01:08:35.400Z,16.20
2019-05-20T01:11:04.972Z,16.20
2019-05-20T01:13:35.524Z,16.20
2019-05-20T01:16:05.186Z,16.20
2019-05-20T01:18:34.804Z,16.20
2019-05-20T01:21:04.404Z,16.20
2019-05-20T01:23:34.007Z,16.20
2019-05-20T01:26:03.570Z,16.10
2019-05-20T01:28:33.116Z,16.10
2019-05-20T01:31:02.742Z,16.10
2019-05-20T01:33:32.383Z,16.10
2019-05-20T01:36:01.966Z,16.10
2019-05-20T01:38:31.579Z,16.10
2019-05-20T01:41:01.182Z,16.10
2019-05-20T01:43:33.452Z,16.10
2019-05-20T01:46:05.520Z,16.10
2019-05-20T01:48:37.430Z,16.10
2019-05-20T01:51:07.701Z,16.00
2019-05-20T01:53:39.344Z,16.00
2019-05-20T01:56:19.644Z,16.00
2019-05-20T01:58:51.704Z,16.10
2019-05-20T02:01:21.426Z,16.10
2019-05-20T02:03:51.074Z,16.00
2019-05-20T02:06:20.700Z,16.00
2019-05-20T02:08:50.300Z,16.00
2019-05-20T02:11:19.965Z,16.00
2019-05-20T02:13:52.346Z,15.90
2019-05-20T02:16:22.253Z,15.90
2019-05-20T02:18:51.841Z,15.80
2019-05-20T02:21:21.422Z,15.80
2019-05-20T02:23:50.988Z,15.60
2019-05-20T02:26:20.599Z,15.60
2019-05-20T02:28:50.205Z,15.60
2019-05-20T02:31:20.502Z,15.60
2019-05-20T02:33:52.768Z,15.50
2019-05-20T02:36:21.508Z,15.50
2019-05-20T02:38:51.188Z,15.50
2019-05-20T02:41:21.062Z,15.50
2019-05-20T02:43:51.165Z,15.40
2019-05-20T02:46:20.802Z,15.40
2019-05-20T02:48:50.394Z,15.40
2019-05-20T02:51:31.014Z,15.40
2019-05-20T02:54:02.314Z,15.30
2019-05-20T02:56:32.272Z,15.30
2019-05-20T02:59:01.866Z,15.30
2019-05-20T03:01:31.439Z,15.40
2019-05-20T03:04:11.568Z,15.30
2019-05-20T03:06:32.298Z,15.30
2019-05-20T03:09:01.854Z,15.20
2019-05-20T03:11:31.604Z,15.20
2019-05-20T03:14:01.261Z,15.10
2019-05-20T03:16:30.871Z,15.20
2019-05-20T03:19:00.500Z,15.10
2019-05-20T03:21:30.093Z,15.10
2019-05-20T03:23:59.698Z,15.10
2019-05-20T03:26:29.970Z,15.10
2019-05-20T03:28:59.610Z,15.00
2019-05-20T03:31:29.303Z,15.00
2019-05-20T03:33:58.927Z,15.00
2019-05-20T03:36:28.597Z,15.00
2019-05-20T03:38:58.171Z,15.00
2019-05-20T03:41:27.865Z,15.10
2019-05-20T03:43:57.509Z,15.10
2019-05-20T03:46:29.633Z,15.20
2019-05-20T03:49:01.686Z,15.20
2019-05-20T03:51:38.825Z,15.20
2019-05-20T03:54:45.192Z,15.30
2019-05-20T03:57:44.865Z,15.30
2019-05-20T04:00:14.740Z,15.40
2019-05-20T04:02:44.400Z,15.40
2019-05-20T04:05:14.040Z,15.40
2019-05-20T04:07:44.451Z,15.50
2019-05-20T04:10:14.276Z,15.50
2019-05-20T04:12:44.009Z,15.60
2019-05-20T04:15:13.883Z,15.60
2019-05-20T04:17:43.626Z,15.60
2019-05-20T04:20:14.450Z,15.70
2019-05-20T04:22:44.097Z,15.80
2019-05-20T04:25:13.794Z,15.90
2019-05-20T04:27:43.845Z,15.90
2019-05-20T04:30:13.602Z,16.00
2019-05-20T04:32:43.199Z,16.00
2019-05-20T04:35:21.928Z,16.00
2019-05-20T04:37:44.477Z,16.00
2019-05-20T04:40:14.315Z,16.00
2019-05-20T04:42:44.034Z,16.00
2019-05-20T04:45:15.298Z,16.10
2019-05-20T04:47:44.905Z,16.10
2019-05-20T04:50:14.512Z,16.00
2019-05-20T04:52:44.114Z,16.10
2019-05-20T04:55:13.802Z,16.20
2019-05-20T04:57:43.475Z,16.30
2019-05-20T05:00:14.486Z,16.30
2019-05-20T05:02:44.100Z,16.40
2019-05-20T05:05:13.785Z,16.50
2019-05-20T05:07:43.494Z,16.60
2019-05-20T05:10:13.738Z,16.70
2019-05-20T05:12:43.285Z,16.70
2019-05-20T05:15:13.129Z,16.60
2019-05-20T05:17:42.795Z,16.60
2019-05-20T05:20:17.843Z,16.60
2019-05-20T05:22:44.006Z,16.80
2019-05-20T05:25:13.713Z,16.70
2019-05-20T05:27:43.274Z,16.80
2019-05-20T05:30:13.003Z,16.90
2019-05-20T05:32:42.906Z,17.00
2019-05-20T05:35:13.710Z,17.10
2019-05-20T05:37:43.427Z,17.20
2019-05-20T05:40:14.241Z,17.40
2019-05-20T05:42:43.821Z,17.40
2019-05-20T05:45:13.953Z,17.40
2019-05-20T05:47:43.522Z,17.50
2019-05-20T05:50:13.250Z,17.40
2019-05-20T05:52:42.825Z,17.40
2019-05-20T05:55:12.476Z,17.40
2019-05-20T05:57:42.122Z,17.60
2019-05-20T06:00:11.815Z,17.80
2019-05-20T06:02:41.338Z,18.00
2019-05-20T06:05:11.464Z,18.00
2019-05-20T06:07:41.059Z,17.90
2019-05-20T06:10:10.749Z,17.80
2019-05-20T06:12:40.326Z,17.80
2019-05-20T06:15:10.682Z,17.80
2019-05-20T06:17:40.410Z,17.90
2019-05-20T06:20:10.601Z,18.10
2019-05-20T06:22:40.239Z,18.10
2019-05-20T06:25:10.242Z,18.30
2019-05-20T06:27:40.913Z,18.40
2019-05-20T06:30:12.594Z,18.50
2019-05-20T06:32:42.245Z,18.60
2019-05-20T06:35:12.401Z,18.70
2019-05-20T06:37:45.452Z,18.80
2019-05-20T06:40:16.189Z,18.80
2019-05-20T06:42:45.833Z,18.80
2019-05-20T06:45:15.762Z,18.90
2019-05-20T06:47:45.338Z,18.90
2019-05-20T06:50:15.133Z,19.10
2019-05-20T06:52:44.676Z,19.20
2019-05-20T06:55:14.434Z,19.20
2019-05-20T06:57:43.998Z,19.20
2019-05-20T07:00:16.612Z,19.30
2019-05-20T07:02:46.189Z,19.30
2019-05-20T07:05:15.957Z,19.30
2019-05-20T07:07:45.532Z,19.40
2019-05-20T07:10:15.213Z,19.50
2019-05-20T07:12:44.760Z,19.50
2019-05-20T07:15:14.480Z,19.60
2019-05-20T07:17:44.120Z,19.70
2019-05-20T07:20:14.016Z,19.90
2019-05-20T07:22:55.199Z,20.00
2019-05-20T07:25:15.108Z,20.00
2019-05-20T07:27:44.743Z,20.00
2019-05-20T07:30:15.588Z,20.00
2019-05-20T07:32:45.342Z,20.20
2019-05-20T07:35:28.693Z,20.40
2019-05-20T07:37:46.275Z,20.60
2019-05-20T07:40:20.781Z,20.70
2019-05-20T07:42:50.396Z,20.90
2019-05-20T07:45:19.990Z,21.00
2019-05-20T07:47:49.721Z,20.90
2019-05-20T07:50:20.059Z,21.00
2019-05-20T07:52:49.777Z,21.10
2019-05-20T07:55:19.641Z,21.20
2019-05-20T07:57:52.137Z,21.30
2019-05-20T08:00:21.784Z,21.30
2019-05-20T08:02:51.706Z,21.50
2019-05-20T08:05:21.269Z,21.50
2019-05-20T08:07:52.659Z,21.50
2019-05-20T08:10:22.365Z,21.80
2019-05-20T08:12:52.114Z,21.90
2019-05-20T08:15:22.665Z,22.10
2019-05-20T08:17:52.275Z,22.30
2019-05-20T08:20:22.018Z,22.30
2019-05-20T08:22:51.608Z,22.30
2019-05-20T08:25:21.293Z,22.50
2019-05-20T08:27:50.848Z,22.70
2019-05-20T08:30:32.670Z,22.70
2019-05-20T08:33:02.381Z,22.90
2019-05-20T08:35:31.998Z,23.00
2019-05-20T08:38:01.651Z,23.10
2019-05-20T08:40:31.311Z,23.10
2019-05-20T08:43:00.884Z,23.20
2019-05-20T08:45:30.437Z,23.30
2019-05-20T08:47:59.980Z,23.50
2019-05-20T08:50:29.601Z,23.50
2019-05-20T08:53:00.374Z,23.60
2019-05-20T08:55:30.098Z,23.70
2019-05-20T08:57:59.888Z,23.90
2019-05-20T09:00:29.430Z,24.00
2019-05-20T09:02:59.085Z,24.00
2019-05-20T09:05:29.248Z,24.10
2019-05-20T09:08:03.599Z,24.30
2019-05-20T09:10:30.291Z,24.50
2019-05-20T09:12:59.821Z,24.80
2019-05-20T09:15:29.545Z,25.00
2019-05-20T09:17:59.219Z,24.90
2019-05-20T09:20:28.918Z,24.90
2019-05-20T09:23:02.382Z,24.90
2019-05-20T09:25:31.387Z,25.10
2019-05-20T09:28:01.347Z,25.60
2019-05-20T09:30:31.074Z,26.10
2019-05-20T09:33:00.711Z,26.20
2019-05-20T09:35:30.365Z,26.50
2019-05-20T09:38:00.260Z,26.70
2019-05-20T09:40:41.086Z,26.70
2019-05-20T09:43:10.755Z,26.60
2019-05-20T09:45:40.416Z,26.80
2019-05-20T09:48:10.422Z,26.80
2019-05-20T09:50:40.658Z,26.80
2019-05-20T09:53:10.445Z,26.70
2019-05-20T09:55:41.181Z,26.70
2019-05-20T09:58:13.651Z,26.80
2019-05-20T10:00:43.398Z,26.80
2019-05-20T10:03:12.937Z,26.80
2019-05-20T10:05:42.601Z,27.00
2019-05-20T10:08:12.181Z,27.00
2019-05-20T10:10:41.842Z,27.10
2019-05-20T10:13:11.440Z,27.20
2019-05-20T10:15:41.059Z,27.30
2019-05-20T10:18:11.082Z,27.60
2019-05-20T10:20:40.822Z,27.80
2019-05-20T10:23:10.630Z,28.00
2019-05-20T10:25:41.021Z,28.10
2019-05-20T10:28:10.866Z,28.10
2019-05-20T10:30:40.522Z,28.20
2019-05-20T10:33:10.807Z,28.20
2019-05-20T10:35:41.087Z,28.20
2019-05-20T10:38:11.770Z,28.10
2019-05-20T10:40:42.104Z,28.20
2019-05-20T10:43:12.053Z,28.10
2019-05-20T10:45:41.922Z,28.20
2019-05-20T10:48:11.525Z,28.50
2019-05-20T10:50:44.707Z,28.50
2019-05-20T10:53:17.347Z,28.70
2019-05-20T10:55:51.287Z,28.60
2019-05-20T10:58:30.530Z,28.50
2019-05-20T11:01:03.026Z,28.50
2019-05-20T11:03:31.764Z,28.50
2019-05-20T11:06:01.395Z,28.30
2019-05-20T11:08:32.920Z,28.20
2019-05-20T11:11:14.423Z,28.20
2019-05-20T11:13:45.636Z,28.10
2019-05-20T11:16:18.525Z,27.90
2019-05-20T11:18:52.288Z,27.80
2019-05-20T11:21:26.945Z,27.80
2019-05-20T11:23:56.509Z,27.70
2019-05-20T11:26:26.142Z,27.60
2019-05-20T11:28:56.432Z,27.40
2019-05-20T11:31:27.916Z,27.20
2019-05-20T11:33:57.742Z,27.10
2019-05-20T11:36:27.330Z,27.00
2019-05-20T11:38:56.922Z,26.90
2019-05-20T11:41:52.098Z,26.80
2019-05-20T11:44:00.503Z,26.80
2019-05-20T11:46:30.143Z,26.80
2019-05-20T11:48:59.972Z,26.70
2019-05-20T11:51:29.561Z,26.70
2019-05-20T11:53:59.177Z,26.80
2019-05-20T11:56:29.872Z,26.90
2019-05-20T11:58:59.536Z,26.80
2019-05-20T12:01:29.183Z,26.70
2019-05-20T12:03:58.812Z,26.70
2019-05-20T12:06:28.506Z,26.60
2019-05-20T12:08:58.122Z,26.70
2019-05-20T12:11:27.774Z,26.70
2019-05-20T12:13:57.405Z,26.70
2019-05-20T12:16:27.087Z,26.80
2019-05-20T12:18:56.729Z,26.80
2019-05-20T12:21:26.329Z,26.80
2019-05-20T12:23:55.890Z,26.80
2019-05-20T12:26:25.565Z,26.80
2019-05-20T12:28:55.833Z,26.70
2019-05-20T12:31:26.129Z,26.80
2019-05-20T12:33:56.757Z,26.80
2019-05-20T12:36:28.510Z,26.80
2019-05-20T12:39:00.593Z,26.90
2019-05-20T12:41:33.268Z,26.80
2019-05-20T12:44:12.087Z,26.90
2019-05-20T12:46:34.682Z,26.90
2019-05-20T12:49:04.364Z,26.80
2019-05-20T12:51:34.342Z,26.70
2019-05-20T12:54:04.073Z,26.60
2019-05-20T12:56:33.617Z,26.60
2019-05-20T12:59:03.181Z,26.80
2019-05-20T13:01:32.943Z,27.10
2019-05-20T13:04:02.707Z,27.30
2019-05-20T13:06:32.377Z,27.40
2019-05-20T13:09:11.488Z,27.30
2019-05-20T13:11:41.125Z,27.20
2019-05-20T13:14:10.885Z,27.10
2019-05-20T13:16:40.678Z,27.30
2019-05-20T13:19:10.365Z,27.20
2019-05-20T13:21:41.845Z,27.30
2019-05-20T13:24:22.970Z,27.50
2019-05-20T13:26:47.896Z,27.70
2019-05-20T13:29:21.731Z,27.60
2019-05-20T13:31:51.446Z,27.30
2019-05-20T13:34:21.110Z,27.00
2019-05-20T13:36:52.692Z,26.80
2019-05-20T13:39:22.584Z,26.70
2019-05-20T13:41:52.159Z,26.40
2019-05-20T13:44:22.814Z,26.20
2019-05-20T13:46:52.648Z,26.10
2019-05-20T13:49:22.294Z,25.90
2019-05-20T13:51:52.042Z,25.60
2019-05-20T13:54:21.722Z,25.60
2019-05-20T13:56:51.345Z,25.50
2019-05-20T13:59:21.014Z,25.50
2019-05-20T14:01:50.743Z,25.50
2019-05-20T14:04:20.415Z,25.30
2019-05-20T14:06:49.980Z,25.30
2019-05-20T14:09:19.575Z,25.30
2019-05-20T14:11:49.161Z,25.20
2019-05-20T14:14:18.717Z,25.20
2019-05-20T14:16:48.266Z,25.20
2019-05-20T14:19:22.237Z,25.10
2019-05-20T14:21:49.959Z,24.90
2019-05-20T14:24:19.544Z,24.80
2019-05-20T14:26:49.225Z,24.60
2019-05-20T14:29:19.499Z,24.40
2019-05-20T14:31:49.585Z,24.30
2019-05-20T14:34:19.177Z,24.00
2019-05-20T14:36:52.607Z,23.70
2019-05-20T14:39:20.064Z,23.80
2019-05-20T14:41:50.040Z,23.60
2019-05-20T14:44:19.846Z,23.50
2019-05-20T14:46:49.425Z,23.30
2019-05-20T14:49:19.019Z,23.20
2019-05-20T14:51:48.594Z,23.00
2019-05-20T14:54:18.362Z,22.60
2019-05-20T14:56:47.961Z,22.50
2019-05-20T14:59:17.581Z,22.50
2019-05-20T15:01:47.274Z,22.40
2019-05-20T15:04:16.908Z,22.30
2019-05-20T15:06:46.484Z,22.10
2019-05-20T15:09:16.205Z,21.30
2019-05-20T15:11:46.345Z,20.70
2019-05-20T15:14:34.671Z,20.40
2019-05-20T15:20:25.571Z,20.10
2019-05-20T15:22:57.011Z,19.90
2019-05-20T15:25:26.644Z,19.80
2019-05-20T15:27:56.397Z,20.00
2019-05-20T15:30:26.069Z,20.20
2019-05-20T15:32:55.637Z,20.20
2019-05-20T15:35:25.212Z,20.30
2019-05-20T15:37:54.777Z,20.20
2019-05-20T15:40:24.805Z,20.10
2019-05-20T15:42:54.452Z,20.10
2019-05-20T15:45:24.132Z,20.00
2019-05-20T15:47:53.733Z,20.00
2019-05-20T15:50:23.404Z,19.90
2019-05-20T15:52:53.144Z,20.00
2019-05-20T15:55:22.776Z,20.00
2019-05-20T15:57:52.381Z,20.00
2019-05-20T16:00:22.064Z,19.90
2019-05-20T16:02:51.732Z,19.90
2019-05-20T16:05:21.284Z,19.90
2019-05-20T16:07:50.857Z,19.90
2019-05-20T16:10:20.472Z,19.90
2019-05-20T16:12:50.107Z,20.00
2019-05-20T16:15:19.823Z,20.20
2019-05-20T16:17:49.421Z,20.60
2019-05-20T16:20:19.592Z,21.10
2019-05-20T16:22:49.268Z,21.60
2019-05-20T16:25:20.133Z,22.50
2019-05-20T16:27:49.842Z,23.00
2019-05-20T16:30:19.739Z,23.20
2019-05-20T16:32:49.311Z,23.50
2019-05-20T16:35:18.832Z,23.10
2019-05-20T16:37:48.416Z,23.20
2019-05-20T16:40:18.321Z,23.10
2019-05-20T16:42:48.133Z,22.70
2019-05-20T16:45:17.961Z,22.40
2019-05-20T16:47:47.554Z,22.30
2019-05-20T16:50:17.353Z,22.50
2019-05-20T16:52:46.952Z,22.50
2019-05-20T16:55:16.873Z,22.40
2019-05-20T16:57:46.426Z,22.00
2019-05-20T17:00:30.771Z,21.90
2019-05-20T17:02:48.052Z,21.60
2019-05-20T17:05:17.831Z,21.30
2019-05-20T17:07:47.413Z,21.00
2019-05-20T17:10:17.317Z,20.80
2019-05-20T17:12:46.878Z,20.70
2019-05-20T17:15:16.924Z,20.50
2019-05-20T17:17:47.455Z,20.40
2019-05-20T17:20:17.192Z,20.30
2019-05-20T17:22:46.916Z,20.10
2019-05-20T17:25:16.586Z,20.10
2019-05-20T17:27:47.749Z,20.00
2019-05-20T17:30:18.673Z,19.90
2019-05-20T17:32:48.337Z,19.80
2019-05-20T17:35:18.024Z,19.80
2019-05-20T17:37:47.624Z,19.80
2019-05-20T17:40:18.638Z,19.80
2019-05-20T17:42:48.209Z,19.90
2019-05-20T17:45:17.986Z,19.80
2019-05-20T17:47:47.654Z,19.80
2019-05-20T17:50:18.540Z,19.80
2019-05-20T17:52:48.188Z,19.80
2019-05-20T17:55:18.098Z,19.80
2019-05-20T17:57:48.652Z,19.80
2019-05-20T18:00:20.959Z,19.70
2019-05-20T18:02:50.525Z,19.70
2019-05-20T18:05:20.257Z,19.70
2019-05-20T18:07:49.859Z,19.70
2019-05-20T18:10:22.208Z,19.70
2019-05-20T18:12:51.832Z,19.70
2019-05-20T18:15:22.020Z,19.60
2019-05-20T18:17:51.629Z,19.60
2019-05-20T18:20:21.428Z,19.50
2019-05-20T18:22:51.142Z,19.40
2019-05-20T18:25:20.799Z,19.30
2019-05-20T18:27:50.434Z,19.20
2019-05-20T18:30:20.205Z,19.10
2019-05-20T18:32:49.884Z,19.10
2019-05-20T18:35:19.585Z,19.10
2019-05-20T18:37:49.161Z,19.00
2019-05-20T18:40:18.885Z,19.00
2019-05-20T18:42:48.432Z,19.00
2019-05-20T18:45:18.071Z,19.10
2019-05-20T18:47:47.634Z,19.10
2019-05-20T18:50:20.565Z,19.10
2019-05-20T18:52:50.181Z,19.10
2019-05-20T18:55:19.770Z,19.00
2019-05-20T18:57:49.351Z,19.00
2019-05-20T19:00:19.398Z,19.20
2019-05-20T19:02:49.036Z,19.10
2019-05-20T19:05:18.781Z,19.10
2019-05-20T19:07:48.720Z,19.10
2019-05-20T19:10:18.741Z,19.00
2019-05-20T19:12:48.472Z,19.10
2019-05-20T19:15:18.222Z,19.00
2019-05-20T19:17:48.156Z,19.10
2019-05-20T19:20:17.858Z,19.00
2019-05-20T19:22:47.526Z,19.00
2019-05-20T19:25:17.176Z,19.00
2019-05-20T19:27:46.773Z,18.80
2019-05-20T19:30:16.786Z,18.80
2019-05-20T19:32:46.408Z,18.60
2019-05-20T19:35:16.100Z,18.50
2019-05-20T19:37:45.880Z,18.50
2019-05-20T19:40:15.584Z,18.40
2019-05-20T19:42:45.273Z,18.30
2019-05-20T19:45:14.929Z,18.10
2019-05-20T19:47:44.578Z,18.10
2019-05-20T19:50:14.362Z,18.10
2019-05-20T19:52:44.049Z,18.10
2019-05-20T19:55:13.734Z,18.10
2019-05-20T19:57:43.430Z,18.10
2019-05-20T20:00:14.424Z,18.10
2019-05-20T20:02:44.061Z,18.20
2019-05-20T20:05:14.134Z,18.10
2019-05-20T20:07:44.124Z,18.10
2019-05-20T20:10:14.531Z,18.10
2019-05-20T20:12:44.154Z,18.10
2019-05-20T20:15:17.940Z,18.00
2019-05-20T20:17:47.710Z,18.00
2019-05-20T20:20:18.333Z,18.00
2019-05-20T20:22:47.892Z,18.00
2019-05-20T20:25:18.490Z,18.00
2019-05-20T20:27:48.156Z,18.00
2019-05-20T20:30:17.888Z,18.00
2019-05-20T20:32:49.985Z,18.00
2019-05-20T20:35:19.687Z,18.00
2019-05-20T20:37:49.286Z,18.10
2019-05-20T20:40:20.216Z,18.00
2019-05-20T20:42:49.880Z,18.00
2019-05-20T20:45:19.570Z,17.90
2019-05-20T20:47:49.320Z,17.90
2019-05-20T20:50:18.900Z,17.90
2019-05-20T20:52:48.482Z,17.90
2019-05-20T20:55:18.052Z,17.90
2019-05-20T20:57:47.635Z,17.80
2019-05-20T21:00:17.476Z,17.70
2019-05-20T21:02:53.129Z,17.50
2019-05-20T21:05:18.276Z,17.40
2019-05-20T21:07:51.536Z,17.20
2019-05-20T21:10:19.225Z,17.00
2019-05-20T21:12:48.826Z,17.20
2019-05-20T21:15:18.363Z,17.20
2019-05-20T21:17:47.944Z,17.00
2019-05-20T21:20:17.546Z,16.80
2019-05-20T21:22:47.149Z,16.70
2019-05-20T21:25:16.689Z,16.60
2019-05-20T21:27:46.264Z,16.80
2019-05-20T21:30:17.403Z,16.90
2019-05-20T21:32:47.131Z,17.10
2019-05-20T21:35:16.776Z,17.20
2019-05-20T21:37:46.350Z,17.10
2019-05-20T21:40:40.161Z,17.20
2019-05-20T21:43:09.729Z,17.10
2019-05-20T21:45:39.279Z,17.00
2019-05-20T21:48:09.982Z,16.90
2019-05-20T21:50:42.729Z,16.80
2019-05-20T21:53:14.913Z,16.70
2019-05-20T21:55:49.065Z,16.60
2019-05-20T21:58:19.775Z,16.70
2019-05-20T22:00:53.631Z,16.60
2019-05-20T22:03:28.392Z,16.60
2019-05-20T22:05:59.520Z,16.60
2019-05-20T22:08:30.353Z,16.50
2019-05-20T22:11:03.114Z,16.40
2019-05-20T22:13:32.975Z,16.50
2019-05-20T22:16:02.667Z,16.60
2019-05-20T22:18:40.087Z,16.60
2019-05-20T22:21:11.486Z,16.70
2019-05-20T22:23:57.034Z,16.60
2019-05-20T22:26:26.661Z,16.50
2019-05-20T22:28:56.328Z,16.60
2019-05-20T22:31:26.105Z,16.50
2019-05-20T22:33:55.689Z,16.40
2019-05-20T22:36:25.349Z,16.40
2019-05-20T22:38:55.291Z,16.30
2019-05-20T22:41:24.865Z,16.30
2019-05-20T22:43:54.453Z,16.30
2019-05-20T22:46:24.025Z,16.20
2019-05-20T22:48:53.571Z,16.20
2019-05-20T22:51:23.169Z,16.20
2019-05-20T22:53:52.818Z,16.20
2019-05-20T22:56:22.392Z,16.10
2019-05-20T22:58:52.029Z,16.10
2019-05-20T23:01:21.705Z,16.10
2019-05-20T23:03:56.333Z,16.10
2019-05-20T23:06:22.549Z,16.10
2019-05-20T23:08:52.163Z,16.00
2019-05-20T23:11:21.737Z,16.00
2019-05-20T23:13:51.324Z,16.00
2019-05-20T23:16:20.905Z,15.90
2019-05-20T23:18:50.493Z,15.90
2019-05-20T23:21:20.117Z,15.80
2019-05-20T23:23:49.709Z,15.80
2019-05-20T23:26:19.243Z,15.80
2019-05-20T23:28:48.831Z,15.80
2019-05-20T23:31:18.436Z,15.80
2019-05-20T23:33:47.964Z,15.80
2019-05-20T23:36:17.515Z,15.70
2019-05-20T23:38:47.169Z,15.60
2019-05-20T23:41:16.817Z,15.60
2019-05-20T23:43:46.403Z,15.60
2019-05-20T23:46:15.992Z,15.50
2019-05-20T23:48:45.547Z,15.60
2019-05-20T23:51:15.137Z,15.60
2019-05-20T23:53:44.725Z,15.50
2019-05-20T23:56:14.311Z,15.50
2019-05-20T23:58:43.857Z,15.50
